sensor_id;sensor_type;location;lat;lon;timestamp;P1;durP1;ratioP1;P2;durP2;ratioP2
11313;SDS011;5712;48.858;9.206;2023-02-04T00:02:21;7.67;;;6.07;;
11313;SDS011;5712;48.858;9.206;2023-02-04T00:04:49;7.13;;;5.80;;
11313;SDS011;5712;48.858;9.206;2023-02-04T00:07:16;7.67;;;5.97;;
11313;SDS011;5712;48.858;9.206;2023-02-04T00:09:42;7.33;;;5.77;;
11313;SDS011;5712;48.858;9.206;2023-02-04T00:12:10;7.83;;;6.20;;
11313;SDS011;5712;48.858;9.206;2023-02-04T00:14:37;8.53;;;5.43;;
11313;SDS011;5712;48.858;9.206;2023-02-04T00:17:03;6.37;;;5.37;;
11313;SDS011;5712;48.858;9.206;2023-02-04T00:19:31;6.23;;;5.10;;
11313;SDS011;5712;48.858;9.206;2023-02-04T00:21:59;6.17;;;5.00;;
11313;SDS011;5712;48.858;9.206;2023-02-04T00:24:27;7.80;;;6.03;;
11313;SDS011;5712;48.858;9.206;2023-02-04T00:26:54;5.90;;;5.30;;
11313;SDS011;5712;48.858;9.206;2023-02-04T00:29:21;7.17;;;5.70;;
11313;SDS011;5712;48.858;9.206;2023-02-04T00:31:48;6.17;;;4.77;;
11313;SDS011;5712;48.858;9.206;2023-02-04T00:34:14;5.90;;;4.97;;
11313;SDS011;5712;48.858;9.206;2023-02-04T00:36:42;6.30;;;4.63;;
11313;SDS011;5712;48.858;9.206;2023-02-04T00:39:10;6.23;;;3.83;;
11313;SDS011;5712;48.858;9.206;2023-02-04T00:41:36;4.10;;;3.40;;
11313;SDS011;5712;48.858;9.206;2023-02-04T00:44:03;4.70;;;3.67;;
11313;SDS011;5712;48.858;9.206;2023-02-04T00:46:29;6.83;;;3.80;;
11313;SDS011;5712;48.858;9.206;2023-02-04T00:48:56;4.67;;;3.80;;
11313;SDS011;5712;48.858;9.206;2023-02-04T00:51:22;7.37;;;4.20;;
11313;SDS011;5712;48.858;9.206;2023-02-04T00:53:49;4.40;;;3.70;;
11313;SDS011;5712;48.858;9.206;2023-02-04T00:56:17;6.80;;;4.03;;
11313;SDS011;5712;48.858;9.206;2023-02-04T00:58:43;5.33;;;3.87;;
11313;SDS011;5712;48.858;9.206;2023-02-04T01:01:10;5.43;;;4.00;;
11313;SDS011;5712;48.858;9.206;2023-02-04T01:03:36;5.40;;;3.87;;
11313;SDS011;5712;48.858;9.206;2023-02-04T01:06:03;5.17;;;3.90;;
11313;SDS011;5712;48.858;9.206;2023-02-04T01:08:29;5.37;;;4.30;;
11313;SDS011;5712;48.858;9.206;2023-02-04T01:10:56;6.00;;;3.17;;
11313;SDS011;5712;48.858;9.206;2023-02-04T01:13:24;5.87;;;3.87;;
11313;SDS011;5712;48.858;9.206;2023-02-04T01:15:50;5.90;;;4.77;;
11313;SDS011;5712;48.858;9.206;2023-02-04T01:18:17;5.37;;;4.87;;
11313;SDS011;5712;48.858;9.206;2023-02-04T01:20:43;7.70;;;4.90;;
11313;SDS011;5712;48.858;9.206;2023-02-04T01:23:10;7.43;;;5.50;;
11313;SDS011;5712;48.858;9.206;2023-02-04T01:25:36;6.67;;;4.33;;
11313;SDS011;5712;48.858;9.206;2023-02-04T01:28:03;5.40;;;3.83;;
11313;SDS011;5712;48.858;9.206;2023-02-04T01:30:31;5.47;;;4.10;;
11313;SDS011;5712;48.858;9.206;2023-02-04T01:32:57;5.50;;;4.30;;
11313;SDS011;5712;48.858;9.206;2023-02-04T01:35:24;4.37;;;3.53;;
11313;SDS011;5712;48.858;9.206;2023-02-04T01:37:50;6.93;;;3.70;;
11313;SDS011;5712;48.858;9.206;2023-02-04T01:40:17;4.10;;;3.70;;
11313;SDS011;5712;48.858;9.206;2023-02-04T01:42:43;5.30;;;4.00;;
11313;SDS011;5712;48.858;9.206;2023-02-04T01:45:10;7.80;;;4.90;;
11313;SDS011;5712;48.858;9.206;2023-02-04T01:47:38;8.67;;;5.00;;
11313;SDS011;5712;48.858;9.206;2023-02-04T01:50:05;6.60;;;4.23;;
11313;SDS011;5712;48.858;9.206;2023-02-04T01:52:34;4.67;;;3.70;;
11313;SDS011;5712;48.858;9.206;2023-02-04T01:55:02;6.53;;;3.50;;
11313;SDS011;5712;48.858;9.206;2023-02-04T01:57:30;3.90;;;2.87;;
11313;SDS011;5712;48.858;9.206;2023-02-04T01:59:58;4.33;;;2.50;;
11313;SDS011;5712;48.858;9.206;2023-02-04T02:02:39;5.07;;;2.50;;
11313;SDS011;5712;48.858;9.206;2023-02-04T02:05:08;5.03;;;2.40;;
11313;SDS011;5712;48.858;9.206;2023-02-04T02:07:36;5.37;;;1.97;;
11313;SDS011;5712;48.858;9.206;2023-02-04T02:10:03;5.23;;;2.37;;
11313;SDS011;5712;48.858;9.206;2023-02-04T02:12:31;2.37;;;2.10;;
11313;SDS011;5712;48.858;9.206;2023-02-04T02:14:58;4.13;;;2.30;;
11313;SDS011;5712;48.858;9.206;2023-02-04T02:17:25;7.03;;;2.10;;
11313;SDS011;5712;48.858;9.206;2023-02-04T02:19:53;3.93;;;2.50;;
11313;SDS011;5712;48.858;9.206;2023-02-04T02:22:21;4.17;;;2.33;;
11313;SDS011;5712;48.858;9.206;2023-02-04T02:24:53;7.53;;;2.53;;
11313;SDS011;5712;48.858;9.206;2023-02-04T02:27:20;4.80;;;2.20;;
11313;SDS011;5712;48.858;9.206;2023-02-04T02:29:47;5.37;;;2.50;;
11313;SDS011;5712;48.858;9.206;2023-02-04T02:32:15;5.97;;;2.37;;
11313;SDS011;5712;48.858;9.206;2023-02-04T02:34:41;4.57;;;2.23;;
11313;SDS011;5712;48.858;9.206;2023-02-04T02:37:09;4.17;;;2.20;;
11313;SDS011;5712;48.858;9.206;2023-02-04T02:39:36;5.47;;;2.10;;
11313;SDS011;5712;48.858;9.206;2023-02-04T02:42:06;6.93;;;2.23;;
11313;SDS011;5712;48.858;9.206;2023-02-04T02:44:33;4.67;;;2.20;;
11313;SDS011;5712;48.858;9.206;2023-02-04T02:46:59;5.53;;;2.20;;
11313;SDS011;5712;48.858;9.206;2023-02-04T02:49:26;6.17;;;2.27;;
11313;SDS011;5712;48.858;9.206;2023-02-04T02:51:57;8.03;;;2.30;;
11313;SDS011;5712;48.858;9.206;2023-02-04T02:54:25;6.77;;;2.23;;
11313;SDS011;5712;48.858;9.206;2023-02-04T02:56:54;10.17;;;2.43;;
11313;SDS011;5712;48.858;9.206;2023-02-04T02:59:23;5.90;;;2.13;;
11313;SDS011;5712;48.858;9.206;2023-02-04T03:01:51;9.90;;;2.93;;
11313;SDS011;5712;48.858;9.206;2023-02-04T03:04:21;7.87;;;3.17;;
11313;SDS011;5712;48.858;9.206;2023-02-04T03:06:50;9.13;;;2.83;;
11313;SDS011;5712;48.858;9.206;2023-02-04T03:09:17;5.37;;;2.60;;
11313;SDS011;5712;48.858;9.206;2023-02-04T03:11:44;6.33;;;2.57;;
11313;SDS011;5712;48.858;9.206;2023-02-04T03:14:11;5.07;;;2.83;;
11313;SDS011;5712;48.858;9.206;2023-02-04T03:16:39;5.77;;;2.43;;
11313;SDS011;5712;48.858;9.206;2023-02-04T03:19:08;6.60;;;2.33;;
11313;SDS011;5712;48.858;9.206;2023-02-04T03:21:35;6.40;;;2.40;;
11313;SDS011;5712;48.858;9.206;2023-02-04T03:24:02;6.67;;;2.80;;
11313;SDS011;5712;48.858;9.206;2023-02-04T03:26:29;5.50;;;2.57;;
11313;SDS011;5712;48.858;9.206;2023-02-04T03:28:55;5.03;;;2.80;;
11313;SDS011;5712;48.858;9.206;2023-02-04T03:31:22;8.87;;;2.90;;
11313;SDS011;5712;48.858;9.206;2023-02-04T03:33:49;8.60;;;2.73;;
11313;SDS011;5712;48.858;9.206;2023-02-04T03:36:16;8.37;;;3.00;;
11313;SDS011;5712;48.858;9.206;2023-02-04T03:38:43;5.83;;;2.50;;
11313;SDS011;5712;48.858;9.206;2023-02-04T03:41:10;5.83;;;2.50;;
11313;SDS011;5712;48.858;9.206;2023-02-04T03:43:36;7.03;;;2.70;;
11313;SDS011;5712;48.858;9.206;2023-02-04T03:46:03;4.83;;;2.33;;
11313;SDS011;5712;48.858;9.206;2023-02-04T03:48:30;6.40;;;2.77;;
11313;SDS011;5712;48.858;9.206;2023-02-04T03:50:57;5.83;;;2.47;;
11313;SDS011;5712;48.858;9.206;2023-02-04T03:53:24;6.10;;;2.33;;
11313;SDS011;5712;48.858;9.206;2023-02-04T03:55:50;6.97;;;2.53;;
11313;SDS011;5712;48.858;9.206;2023-02-04T03:58:17;5.70;;;2.70;;
11313;SDS011;5712;48.858;9.206;2023-02-04T04:00:43;6.57;;;2.37;;
11313;SDS011;5712;48.858;9.206;2023-02-04T04:03:10;7.23;;;2.60;;
11313;SDS011;5712;48.858;9.206;2023-02-04T04:05:36;4.37;;;2.40;;
11313;SDS011;5712;48.858;9.206;2023-02-04T04:08:04;7.87;;;2.37;;
11313;SDS011;5712;48.858;9.206;2023-02-04T04:10:31;8.17;;;3.27;;
11313;SDS011;5712;48.858;9.206;2023-02-04T04:12:57;5.00;;;2.37;;
11313;SDS011;5712;48.858;9.206;2023-02-04T04:15:24;6.03;;;2.50;;
11313;SDS011;5712;48.858;9.206;2023-02-04T04:17:50;7.47;;;2.70;;
11313;SDS011;5712;48.858;9.206;2023-02-04T04:20:17;6.10;;;2.50;;
11313;SDS011;5712;48.858;9.206;2023-02-04T04:22:43;7.67;;;2.40;;
11313;SDS011;5712;48.858;9.206;2023-02-04T04:25:12;9.40;;;3.07;;
11313;SDS011;5712;48.858;9.206;2023-02-04T04:27:38;7.23;;;2.50;;
11313;SDS011;5712;48.858;9.206;2023-02-04T04:30:05;6.60;;;2.73;;
11313;SDS011;5712;48.858;9.206;2023-02-04T04:32:31;7.03;;;2.30;;
11313;SDS011;5712;48.858;9.206;2023-02-04T04:34:58;5.13;;;2.60;;
11313;SDS011;5712;48.858;9.206;2023-02-04T04:37:24;9.70;;;2.67;;
11313;SDS011;5712;48.858;9.206;2023-02-04T04:39:51;8.37;;;2.50;;
11313;SDS011;5712;48.858;9.206;2023-02-04T04:42:19;4.63;;;2.60;;
11313;SDS011;5712;48.858;9.206;2023-02-04T04:44:45;7.03;;;2.67;;
11313;SDS011;5712;48.858;9.206;2023-02-04T04:47:12;7.77;;;2.77;;
11313;SDS011;5712;48.858;9.206;2023-02-04T04:49:38;6.80;;;2.87;;
11313;SDS011;5712;48.858;9.206;2023-02-04T04:52:05;8.07;;;2.53;;
11313;SDS011;5712;48.858;9.206;2023-02-04T04:54:31;6.33;;;3.20;;
11313;SDS011;5712;48.858;9.206;2023-02-04T04:56:58;7.63;;;3.10;;
11313;SDS011;5712;48.858;9.206;2023-02-04T04:59:25;7.00;;;2.90;;
11313;SDS011;5712;48.858;9.206;2023-02-04T05:01:52;6.20;;;3.03;;
11313;SDS011;5712;48.858;9.206;2023-02-04T05:04:18;5.83;;;3.27;;
11313;SDS011;5712;48.858;9.206;2023-02-04T05:06:45;5.63;;;3.40;;
11313;SDS011;5712;48.858;9.206;2023-02-04T05:09:11;8.13;;;3.40;;
11313;SDS011;5712;48.858;9.206;2023-02-04T05:11:39;8.13;;;3.20;;
11313;SDS011;5712;48.858;9.206;2023-02-04T05:14:05;10.67;;;4.10;;
11313;SDS011;5712;48.858;9.206;2023-02-04T05:16:33;9.33;;;3.60;;
11313;SDS011;5712;48.858;9.206;2023-02-04T05:18:59;7.87;;;3.87;;
11313;SDS011;5712;48.858;9.206;2023-02-04T05:21:26;12.00;;;3.77;;
11313;SDS011;5712;48.858;9.206;2023-02-04T05:23:52;11.10;;;4.13;;
11313;SDS011;5712;48.858;9.206;2023-02-04T05:26:19;7.10;;;3.60;;
11313;SDS011;5712;48.858;9.206;2023-02-04T05:28:45;13.63;;;4.17;;
11313;SDS011;5712;48.858;9.206;2023-02-04T05:31:12;9.23;;;3.70;;
11313;SDS011;5712;48.858;9.206;2023-02-04T05:33:40;5.37;;;3.77;;
11313;SDS011;5712;48.858;9.206;2023-02-04T05:36:06;7.17;;;4.07;;
11313;SDS011;5712;48.858;9.206;2023-02-04T05:38:32;8.00;;;4.33;;
11313;SDS011;5712;48.858;9.206;2023-02-04T05:40:59;7.97;;;4.47;;
11313;SDS011;5712;48.858;9.206;2023-02-04T05:43:25;7.97;;;4.17;;
11313;SDS011;5712;48.858;9.206;2023-02-04T05:45:52;9.83;;;4.53;;
11313;SDS011;5712;48.858;9.206;2023-02-04T05:48:18;8.27;;;4.00;;
11313;SDS011;5712;48.858;9.206;2023-02-04T05:50:46;10.30;;;4.67;;
11313;SDS011;5712;48.858;9.206;2023-02-04T05:53:13;9.03;;;5.13;;
11313;SDS011;5712;48.858;9.206;2023-02-04T05:55:39;8.63;;;4.63;;
11313;SDS011;5712;48.858;9.206;2023-02-04T05:58:05;9.03;;;4.60;;
11313;SDS011;5712;48.858;9.206;2023-02-04T06:00:32;9.20;;;4.70;;
11313;SDS011;5712;48.858;9.206;2023-02-04T06:02:58;10.57;;;5.10;;
11313;SDS011;5712;48.858;9.206;2023-02-04T06:05:25;12.10;;;5.60;;
11313;SDS011;5712;48.858;9.206;2023-02-04T06:07:53;15.43;;;5.87;;
11313;SDS011;5712;48.858;9.206;2023-02-04T06:10:19;7.20;;;5.37;;
11313;SDS011;5712;48.858;9.206;2023-02-04T06:12:46;12.03;;;5.30;;
11313;SDS011;5712;48.858;9.206;2023-02-04T06:15:13;8.57;;;5.00;;
11313;SDS011;5712;48.858;9.206;2023-02-04T06:17:40;11.50;;;5.10;;
11313;SDS011;5712;48.858;9.206;2023-02-04T06:20:07;11.33;;;5.27;;
11313;SDS011;5712;48.858;9.206;2023-02-04T06:22:34;10.97;;;5.43;;
11313;SDS011;5712;48.858;9.206;2023-02-04T06:25:02;12.27;;;5.67;;
11313;SDS011;5712;48.858;9.206;2023-02-04T06:27:28;14.53;;;5.93;;
11313;SDS011;5712;48.858;9.206;2023-02-04T06:29:55;9.53;;;5.83;;
11313;SDS011;5712;48.858;9.206;2023-02-04T06:32:22;9.67;;;5.70;;
11313;SDS011;5712;48.858;9.206;2023-02-04T06:34:48;10.60;;;5.63;;
11313;SDS011;5712;48.858;9.206;2023-02-04T06:37:17;13.63;;;6.23;;
11313;SDS011;5712;48.858;9.206;2023-02-04T06:39:44;12.40;;;5.80;;
11313;SDS011;5712;48.858;9.206;2023-02-04T06:42:12;14.27;;;6.30;;
11313;SDS011;5712;48.858;9.206;2023-02-04T06:44:38;16.37;;;6.27;;
11313;SDS011;5712;48.858;9.206;2023-02-04T06:47:05;13.53;;;6.00;;
11313;SDS011;5712;48.858;9.206;2023-02-04T06:49:31;14.30;;;6.03;;
11313;SDS011;5712;48.858;9.206;2023-02-04T06:51:58;12.47;;;5.90;;
11313;SDS011;5712;48.858;9.206;2023-02-04T06:54:24;15.70;;;6.60;;
11313;SDS011;5712;48.858;9.206;2023-02-04T06:56:51;10.57;;;5.20;;
11313;SDS011;5712;48.858;9.206;2023-02-04T06:59:19;11.37;;;6.33;;
11313;SDS011;5712;48.858;9.206;2023-02-04T07:01:45;19.50;;;6.37;;
11313;SDS011;5712;48.858;9.206;2023-02-04T07:04:12;14.00;;;5.80;;
11313;SDS011;5712;48.858;9.206;2023-02-04T07:06:38;14.07;;;5.87;;
11313;SDS011;5712;48.858;9.206;2023-02-04T07:09:05;13.03;;;5.43;;
11313;SDS011;5712;48.858;9.206;2023-02-04T07:11:31;13.53;;;6.47;;
11313;SDS011;5712;48.858;9.206;2023-02-04T07:13:58;17.80;;;6.63;;
11313;SDS011;5712;48.858;9.206;2023-02-04T07:16:25;17.63;;;6.90;;
11313;SDS011;5712;48.858;9.206;2023-02-04T07:18:52;17.90;;;6.93;;
11313;SDS011;5712;48.858;9.206;2023-02-04T07:21:18;10.97;;;5.67;;
11313;SDS011;5712;48.858;9.206;2023-02-04T07:23:45;19.03;;;7.03;;
11313;SDS011;5712;48.858;9.206;2023-02-04T07:26:12;13.60;;;6.57;;
11313;SDS011;5712;48.858;9.206;2023-02-04T07:28:38;16.43;;;6.43;;
11313;SDS011;5712;48.858;9.206;2023-02-04T07:31:06;12.63;;;5.43;;
11313;SDS011;5712;48.858;9.206;2023-02-04T07:33:34;8.97;;;5.63;;
11313;SDS011;5712;48.858;9.206;2023-02-04T07:36:00;13.90;;;6.10;;
11313;SDS011;5712;48.858;9.206;2023-02-04T07:38:27;16.50;;;5.50;;
11313;SDS011;5712;48.858;9.206;2023-02-04T07:40:53;9.40;;;4.73;;
11313;SDS011;5712;48.858;9.206;2023-02-04T07:43:20;11.13;;;5.50;;
11313;SDS011;5712;48.858;9.206;2023-02-04T07:45:46;9.27;;;4.70;;
11313;SDS011;5712;48.858;9.206;2023-02-04T07:48:13;14.53;;;5.23;;
11313;SDS011;5712;48.858;9.206;2023-02-04T07:50:41;13.00;;;5.03;;
11313;SDS011;5712;48.858;9.206;2023-02-04T07:53:07;13.07;;;4.20;;
11313;SDS011;5712;48.858;9.206;2023-02-04T07:55:34;12.67;;;5.10;;
11313;SDS011;5712;48.858;9.206;2023-02-04T07:58:00;11.30;;;4.43;;
11313;SDS011;5712;48.858;9.206;2023-02-04T08:00:27;13.73;;;4.47;;
11313;SDS011;5712;48.858;9.206;2023-02-04T08:02:53;9.60;;;3.97;;
11313;SDS011;5712;48.858;9.206;2023-02-04T08:05:20;9.63;;;4.40;;
11313;SDS011;5712;48.858;9.206;2023-02-04T08:07:48;10.37;;;4.00;;
11313;SDS011;5712;48.858;9.206;2023-02-04T08:10:14;12.50;;;4.23;;
11313;SDS011;5712;48.858;9.206;2023-02-04T08:12:41;9.67;;;3.73;;
11313;SDS011;5712;48.858;9.206;2023-02-04T08:15:07;9.40;;;4.30;;
11313;SDS011;5712;48.858;9.206;2023-02-04T08:17:34;9.03;;;4.27;;
11313;SDS011;5712;48.858;9.206;2023-02-04T08:20:01;14.30;;;4.43;;
11313;SDS011;5712;48.858;9.206;2023-02-04T08:22:28;9.80;;;4.60;;
11313;SDS011;5712;48.858;9.206;2023-02-04T08:24:55;13.00;;;4.17;;
11313;SDS011;5712;48.858;9.206;2023-02-04T08:27:22;13.73;;;4.67;;
11313;SDS011;5712;48.858;9.206;2023-02-04T08:29:48;9.37;;;4.00;;
11313;SDS011;5712;48.858;9.206;2023-02-04T08:32:15;7.80;;;4.50;;
11313;SDS011;5712;48.858;9.206;2023-02-04T08:34:41;16.47;;;5.73;;
11313;SDS011;5712;48.858;9.206;2023-02-04T08:37:08;11.27;;;5.30;;
11313;SDS011;5712;48.858;9.206;2023-02-04T08:39:35;20.23;;;6.87;;
11313;SDS011;5712;48.858;9.206;2023-02-04T08:42:03;10.60;;;5.20;;
11313;SDS011;5712;48.858;9.206;2023-02-04T08:44:30;12.53;;;6.03;;
11313;SDS011;5712;48.858;9.206;2023-02-04T08:46:56;16.37;;;6.30;;
11313;SDS011;5712;48.858;9.206;2023-02-04T08:49:23;13.17;;;5.60;;
11313;SDS011;5712;48.858;9.206;2023-02-04T08:51:49;17.43;;;6.30;;
11313;SDS011;5712;48.858;9.206;2023-02-04T08:54:16;12.93;;;6.30;;
11313;SDS011;5712;48.858;9.206;2023-02-04T08:56:42;12.87;;;6.20;;
11313;SDS011;5712;48.858;9.206;2023-02-04T08:59:10;13.67;;;7.17;;
11313;SDS011;5712;48.858;9.206;2023-02-04T09:01:37;15.47;;;6.80;;
11313;SDS011;5712;48.858;9.206;2023-02-04T09:04:03;14.70;;;6.47;;
11313;SDS011;5712;48.858;9.206;2023-02-04T09:06:30;11.53;;;6.40;;
11313;SDS011;5712;48.858;9.206;2023-02-04T09:08:56;16.30;;;6.67;;
11313;SDS011;5712;48.858;9.206;2023-02-04T09:11:22;12.67;;;6.03;;
11313;SDS011;5712;48.858;9.206;2023-02-04T09:13:49;12.93;;;6.10;;
11313;SDS011;5712;48.858;9.206;2023-02-04T09:16:17;16.67;;;6.80;;
11313;SDS011;5712;48.858;9.206;2023-02-04T09:18:44;13.63;;;6.60;;
11313;SDS011;5712;48.858;9.206;2023-02-04T09:21:10;16.87;;;7.77;;
11313;SDS011;5712;48.858;9.206;2023-02-04T09:23:37;19.70;;;8.17;;
11313;SDS011;5712;48.858;9.206;2023-02-04T09:26:03;13.03;;;6.33;;
11313;SDS011;5712;48.858;9.206;2023-02-04T09:28:33;13.83;;;6.20;;
11313;SDS011;5712;48.858;9.206;2023-02-04T09:30:59;13.10;;;6.73;;
11313;SDS011;5712;48.858;9.206;2023-02-04T09:33:27;12.90;;;6.60;;
11313;SDS011;5712;48.858;9.206;2023-02-04T09:35:53;14.47;;;7.13;;
11313;SDS011;5712;48.858;9.206;2023-02-04T09:38:20;12.17;;;6.83;;
11313;SDS011;5712;48.858;9.206;2023-02-04T09:40:48;10.80;;;5.60;;
11313;SDS011;5712;48.858;9.206;2023-02-04T09:43:19;17.23;;;5.20;;
11313;SDS011;5712;48.858;9.206;2023-02-04T09:45:49;14.23;;;5.97;;
11313;SDS011;5712;48.858;9.206;2023-02-04T09:48:15;13.20;;;5.47;;
11313;SDS011;5712;48.858;9.206;2023-02-04T09:50:44;12.10;;;5.37;;
11313;SDS011;5712;48.858;9.206;2023-02-04T09:53:12;15.43;;;5.33;;
11313;SDS011;5712;48.858;9.206;2023-02-04T09:55:42;14.63;;;4.40;;
11313;SDS011;5712;48.858;9.206;2023-02-04T09:58:10;9.53;;;3.77;;
11313;SDS011;5712;48.858;9.206;2023-02-04T10:00:40;10.73;;;3.60;;
11313;SDS011;5712;48.858;9.206;2023-02-04T10:03:08;13.30;;;4.27;;
11313;SDS011;5712;48.858;9.206;2023-02-04T10:05:39;10.97;;;3.30;;
11313;SDS011;5712;48.858;9.206;2023-02-04T10:08:08;10.30;;;2.97;;
11313;SDS011;5712;48.858;9.206;2023-02-04T10:10:39;7.63;;;2.50;;
11313;SDS011;5712;48.858;9.206;2023-02-04T10:13:07;11.63;;;2.53;;
11313;SDS011;5712;48.858;9.206;2023-02-04T10:15:40;12.37;;;2.63;;
11313;SDS011;5712;48.858;9.206;2023-02-04T10:18:07;8.07;;;2.73;;
11313;SDS011;5712;48.858;9.206;2023-02-04T10:20:34;9.57;;;3.10;;
11313;SDS011;5712;48.858;9.206;2023-02-04T10:23:00;9.90;;;3.00;;
11313;SDS011;5712;48.858;9.206;2023-02-04T10:25:28;10.57;;;3.27;;
11313;SDS011;5712;48.858;9.206;2023-02-04T10:27:55;13.00;;;3.00;;
11313;SDS011;5712;48.858;9.206;2023-02-04T10:30:24;9.93;;;3.20;;
11313;SDS011;5712;48.858;9.206;2023-02-04T10:32:52;8.17;;;3.20;;
11313;SDS011;5712;48.858;9.206;2023-02-04T10:35:20;10.13;;;3.27;;
11313;SDS011;5712;48.858;9.206;2023-02-04T10:37:47;12.03;;;3.00;;
11313;SDS011;5712;48.858;9.206;2023-02-04T10:40:29;11.80;;;3.37;;
11313;SDS011;5712;48.858;9.206;2023-02-04T10:42:57;9.23;;;2.80;;
11313;SDS011;5712;48.858;9.206;2023-02-04T10:45:24;9.67;;;3.10;;
11313;SDS011;5712;48.858;9.206;2023-02-04T10:47:53;9.83;;;3.03;;
11313;SDS011;5712;48.858;9.206;2023-02-04T10:50:22;10.17;;;3.63;;
11313;SDS011;5712;48.858;9.206;2023-02-04T10:52:51;10.30;;;3.30;;
11313;SDS011;5712;48.858;9.206;2023-02-04T10:55:41;8.47;;;3.10;;
11313;SDS011;5712;48.858;9.206;2023-02-04T10:58:09;11.40;;;3.20;;
11313;SDS011;5712;48.858;9.206;2023-02-04T11:00:37;10.37;;;2.83;;
11313;SDS011;5712;48.858;9.206;2023-02-04T11:03:05;10.37;;;2.60;;
11313;SDS011;5712;48.858;9.206;2023-02-04T11:05:36;10.80;;;2.83;;
11313;SDS011;5712;48.858;9.206;2023-02-04T11:08:11;12.27;;;3.42;;
11313;SDS011;5712;48.858;9.206;2023-02-04T11:10:48;8.83;;;2.83;;
11313;SDS011;5712;48.858;9.206;2023-02-04T11:13:20;9.97;;;2.70;;
11313;SDS011;5712;48.858;9.206;2023-02-04T11:15:48;13.90;;;2.97;;
11313;SDS011;5712;48.858;9.206;2023-02-04T11:18:27;8.57;;;2.90;;
11313;SDS011;5712;48.858;9.206;2023-02-04T11:20:58;6.90;;;2.50;;
11313;SDS011;5712;48.858;9.206;2023-02-04T11:23:32;8.67;;;2.90;;
11313;SDS011;5712;48.858;9.206;2023-02-04T11:29:07;11.40;;;3.00;;
11313;SDS011;5712;48.858;9.206;2023-02-04T11:31:55;14.77;;;3.07;;
11313;SDS011;5712;48.858;9.206;2023-02-04T11:34:25;8.50;;;2.10;;
11313;SDS011;5712;48.858;9.206;2023-02-04T11:36:54;11.60;;;2.80;;
11313;SDS011;5712;48.858;9.206;2023-02-04T11:39:31;10.63;;;2.90;;
11313;SDS011;5712;48.858;9.206;2023-02-04T11:42:02;7.50;;;2.37;;
11313;SDS011;5712;48.858;9.206;2023-02-04T11:44:29;9.37;;;2.43;;
11313;SDS011;5712;48.858;9.206;2023-02-04T11:47:06;13.73;;;2.50;;
11313;SDS011;5712;48.858;9.206;2023-02-04T11:49:34;11.77;;;2.97;;
11313;SDS011;5712;48.858;9.206;2023-02-04T11:52:04;9.53;;;2.53;;
11313;SDS011;5712;48.858;9.206;2023-02-04T11:54:33;5.57;;;2.00;;
11313;SDS011;5712;48.858;9.206;2023-02-04T11:57:01;10.30;;;2.97;;
11313;SDS011;5712;48.858;9.206;2023-02-04T11:59:28;13.67;;;2.70;;
11313;SDS011;5712;48.858;9.206;2023-02-04T12:02:02;9.23;;;3.00;;
11313;SDS011;5712;48.858;9.206;2023-02-04T12:04:30;5.97;;;2.00;;
11313;SDS011;5712;48.858;9.206;2023-02-04T12:06:57;6.80;;;2.30;;
11313;SDS011;5712;48.858;9.206;2023-02-04T12:09:25;8.73;;;2.43;;
11313;SDS011;5712;48.858;9.206;2023-02-04T12:11:54;9.97;;;2.40;;
11313;SDS011;5712;48.858;9.206;2023-02-04T12:14:26;6.17;;;2.00;;
11313;SDS011;5712;48.858;9.206;2023-02-04T12:16:54;10.83;;;2.00;;
11313;SDS011;5712;48.858;9.206;2023-02-04T12:19:20;6.13;;;2.17;;
11313;SDS011;5712;48.858;9.206;2023-02-04T12:21:47;6.87;;;2.20;;
11313;SDS011;5712;48.858;9.206;2023-02-04T12:24:14;9.73;;;2.50;;
11313;SDS011;5712;48.858;9.206;2023-02-04T12:26:40;7.30;;;2.23;;
11313;SDS011;5712;48.858;9.206;2023-02-04T12:29:07;10.20;;;2.53;;
11313;SDS011;5712;48.858;9.206;2023-02-04T12:31:35;8.20;;;2.40;;
11313;SDS011;5712;48.858;9.206;2023-02-04T12:34:01;5.03;;;2.10;;
11313;SDS011;5712;48.858;9.206;2023-02-04T12:36:28;10.77;;;3.07;;
11313;SDS011;5712;48.858;9.206;2023-02-04T12:38:54;10.93;;;2.83;;
11313;SDS011;5712;48.858;9.206;2023-02-04T12:41:22;8.30;;;2.30;;
11313;SDS011;5712;48.858;9.206;2023-02-04T12:43:49;8.37;;;2.73;;
11313;SDS011;5712;48.858;9.206;2023-02-04T12:46:15;10.40;;;3.03;;
11313;SDS011;5712;48.858;9.206;2023-02-04T12:48:43;10.00;;;2.83;;
11313;SDS011;5712;48.858;9.206;2023-02-04T12:51:10;9.20;;;2.53;;
11313;SDS011;5712;48.858;9.206;2023-02-04T12:53:36;8.60;;;2.80;;
11313;SDS011;5712;48.858;9.206;2023-02-04T12:56:03;10.17;;;2.93;;
11313;SDS011;5712;48.858;9.206;2023-02-04T12:58:30;14.83;;;4.07;;
11313;SDS011;5712;48.858;9.206;2023-02-04T13:00:57;9.57;;;3.37;;
11313;SDS011;5712;48.858;9.206;2023-02-04T13:03:23;11.57;;;3.30;;
11313;SDS011;5712;48.858;9.206;2023-02-04T13:05:51;10.33;;;3.10;;
11313;SDS011;5712;48.858;9.206;2023-02-04T13:08:18;11.30;;;2.93;;
11313;SDS011;5712;48.858;9.206;2023-02-04T13:10:45;11.90;;;3.00;;
11313;SDS011;5712;48.858;9.206;2023-02-04T13:13:15;11.37;;;2.90;;
11313;SDS011;5712;48.858;9.206;2023-02-04T13:15:42;10.67;;;2.73;;
11313;SDS011;5712;48.858;9.206;2023-02-04T13:18:08;10.30;;;3.10;;
11313;SDS011;5712;48.858;9.206;2023-02-04T13:20:35;9.57;;;3.13;;
11313;SDS011;5712;48.858;9.206;2023-02-04T13:23:03;9.23;;;2.60;;
11313;SDS011;5712;48.858;9.206;2023-02-04T13:25:30;10.90;;;2.70;;
11313;SDS011;5712;48.858;9.206;2023-02-04T13:27:56;7.80;;;2.67;;
11313;SDS011;5712;48.858;9.206;2023-02-04T13:30:23;11.40;;;2.87;;
11313;SDS011;5712;48.858;9.206;2023-02-04T13:32:49;9.73;;;2.87;;
11313;SDS011;5712;48.858;9.206;2023-02-04T13:35:16;8.87;;;2.53;;
11313;SDS011;5712;48.858;9.206;2023-02-04T13:37:43;6.97;;;2.33;;
11313;SDS011;5712;48.858;9.206;2023-02-04T13:40:11;9.10;;;2.60;;
11313;SDS011;5712;48.858;9.206;2023-02-04T13:42:38;11.37;;;2.60;;
11313;SDS011;5712;48.858;9.206;2023-02-04T13:45:05;8.53;;;2.53;;
11313;SDS011;5712;48.858;9.206;2023-02-04T13:47:36;8.73;;;2.30;;
11313;SDS011;5712;48.858;9.206;2023-02-04T13:50:02;5.63;;;2.07;;
11313;SDS011;5712;48.858;9.206;2023-02-04T13:52:29;9.00;;;2.43;;
11313;SDS011;5712;48.858;9.206;2023-02-04T13:54:57;7.37;;;2.60;;
11313;SDS011;5712;48.858;9.206;2023-02-04T13:57:25;8.07;;;2.40;;
11313;SDS011;5712;48.858;9.206;2023-02-04T13:59:51;8.83;;;2.30;;
11313;SDS011;5712;48.858;9.206;2023-02-04T14:02:18;9.90;;;2.67;;
11313;SDS011;5712;48.858;9.206;2023-02-04T14:04:45;6.93;;;2.17;;
11313;SDS011;5712;48.858;9.206;2023-02-04T14:07:11;5.77;;;2.20;;
11313;SDS011;5712;48.858;9.206;2023-02-04T14:09:38;5.10;;;2.00;;
11313;SDS011;5712;48.858;9.206;2023-02-04T14:12:05;6.60;;;1.87;;
11313;SDS011;5712;48.858;9.206;2023-02-04T14:14:33;5.83;;;2.20;;
11313;SDS011;5712;48.858;9.206;2023-02-04T14:16:59;3.97;;;1.50;;
11313;SDS011;5712;48.858;9.206;2023-02-04T14:19:26;6.00;;;1.50;;
11313;SDS011;5712;48.858;9.206;2023-02-04T14:21:52;7.45;;;2.28;;
11313;SDS011;5712;48.858;9.206;2023-02-04T14:24:19;6.07;;;2.27;;
11313;SDS011;5712;48.858;9.206;2023-02-04T14:26:45;6.83;;;1.80;;
11313;SDS011;5712;48.858;9.206;2023-02-04T14:29:12;7.10;;;1.60;;
11313;SDS011;5712;48.858;9.206;2023-02-04T14:31:40;6.33;;;2.27;;
11313;SDS011;5712;48.858;9.206;2023-02-04T14:34:06;9.30;;;2.47;;
11313;SDS011;5712;48.858;9.206;2023-02-04T14:36:33;9.70;;;2.03;;
11313;SDS011;5712;48.858;9.206;2023-02-04T14:38:59;5.67;;;1.80;;
11313;SDS011;5712;48.858;9.206;2023-02-04T14:41:26;4.87;;;1.70;;
11313;SDS011;5712;48.858;9.206;2023-02-04T14:43:54;4.80;;;1.67;;
11313;SDS011;5712;48.858;9.206;2023-02-04T14:46:20;5.97;;;1.77;;
11313;SDS011;5712;48.858;9.206;2023-02-04T14:48:48;9.97;;;2.23;;
11313;SDS011;5712;48.858;9.206;2023-02-04T14:51:16;7.33;;;1.87;;
11313;SDS011;5712;48.858;9.206;2023-02-04T14:53:43;6.10;;;1.60;;
11313;SDS011;5712;48.858;9.206;2023-02-04T14:56:10;6.10;;;1.73;;
11313;SDS011;5712;48.858;9.206;2023-02-04T14:58:37;6.60;;;2.30;;
11313;SDS011;5712;48.858;9.206;2023-02-04T15:01:03;4.63;;;1.70;;